Milford, Virginia
Current Conditions -  °F | °C
As of 4:35 PM on Friday 24 Oct 2014 (Local Time) from KEZF Reporting Station
Clear Clear  
Wind Chill: 69°   Ceiling: Unl
Heat Index: 69°   Visibility: 10mi
Dew Point: 41°   Wind: 7mph
Humidity: 36%   Direction: 290°WNW
Pressure: 29.91"   Gusts: NA
Location:  38.02°N, 77.37°W
Report Text: KEZF 242035Z AUTO 29006KT 10SM CLR 21/05 A2991 RMK AO2 T02050050
Loading
Personal Weather Stations






























Interactive Weather Map
Tropical Storm Tracking
New forecast layout! Learn more

10-Day Weather Forecast

Advertisements
Track Severe Weather on mobile